Portada
METAR-TAF:

METAR-TAF

Aeropuertos :

Isla de Capri, Italia

latitud: 40-33N, longitud: 014-12E, altitud: 160 m

Observación

El informe se hizo hace 1 hora y 18 minutos, a las 07:55 UTC
Viento 2 kt del este-noreste
Temperatura 12°C
Humedad 67%
Presión 1015 hPa
Visibilidad 10 km o más
Nubes dispersas a una altura de 3000 ft

METAR: LIQC 160755Z 06002KT 9999 SCT030 12/06 Q1015 RMK OVC BKN080 QUK 2 QUL 1 NE VIS MAR 20 KM VIS MIN 9999

Hora: 11:13 (09:13 UTC)


TAF: falta

Observaciones y pronósticos meteorológicos de más de 4000 aeropuertos (mensajes METAR y TAF).

Los puntos amarillos y rojos representan las estaciones disponibles.

Ponga el ratón en el punto deseado para ver el nombre de la estación.

Haga clic para ver las observaciones y los pronósticos meteorológicos.

Para cambiar el mapa : haga clic en los botones verdes con una cruz de color negro para hacer un zoom, en el botón verde con un guión para alejar o en las flechas verdes para mapas adyacentes.


METAR-TAF: